RAIN

Not for real navigation. The accuracy of this data is not assured See disclaimer for more information



ICAO NAME COUNTRY WIND Kt GUST Kt VIS m TEMP/DEW C BARO METAR
KJAS Jasper, Jasper County-Bell Fie TX United States 0 0 400 17/17 29.88 KJAS 191015Z AUTO 00000KT 0.25SM -RA OVC001 17/17 A2988 RMK AO2 T01660165
KGPZ Grand Rapids, Grand Rapids/Ita MN United States 11 0 400 -1/-2 29.72 KGPZ 191019Z AUTO 18011KT 0.25SM -SN FZFG OVC001 M01/M02 A2972 RMK AO2 SNB12 P0000 FZRANO
PAMY Mekoryuk, Mekoryuk Airport AK United States 28 0 400 -18/-20 29.25 PAMY 191008Z AUTO 05028KT 0.25SM +SN FZFG OVC009 M18/M20 A2925 RMK AO2 PK WND 05031/1008 CIG 007V012
KNSE MILTON WHITING FIELD (NORTH) FL United States 0 0 800 17/17 30.02 KNSE 191026Z AUTO 00000KT 0.5SM -RA FG VV002 17/17 A3002 RMK AO2 P0000 T01720172 $
WMKC Kota Bharu Malaysia 20 30 1000 24/23 29.83 WMKC 191000Z 08020G30KT 1000 +RA FEW005 SCT020 OVC200 24/23 Q1010

Show more